Time;durP1;ratioP1;P1;durP2;ratioP2;P2;SDS_P1;SDS_P2;PMS_P1;PMS_P2;Temp;Humidity;BMP_temperature;BMP_pressure;BME280_temperature;BME280_humidity;BME280_pressure;Samples;Min_cycle;Max_cycle;Signal;HPM_P1;HPM_P2
2021/10/30 00:00:21;;;;;;;;;16.75;16.50;;;;;15.67;71.13;99909.78;5061314;28;45220;-72
2021/10/30 00:02:47;;;;;;;;;19.25;19.00;;;;;15.68;71.06;99898.94;5062307;28;45289;-73
2021/10/30 00:05:13;;;;;;;;;19.00;17.75;;;;;15.66;71.08;99890.09;5048895;28;45332;-73
2021/10/30 00:07:40;;;;;;;;;12.00;11.75;;;;;15.67;70.81;99890.97;5066282;28;45342;-72
2021/10/30 00:10:06;;;;;;;;;18.00;17.00;;;;;15.68;70.94;99887.31;5058723;28;45290;-73
2021/10/30 00:12:32;;;;;;;;;16.25;16.25;;;;;15.62;70.86;99874.25;5060181;28;45242;-73
2021/10/30 00:14:58;;;;;;;;;18.00;17.00;;;;;15.66;70.85;99876.66;5058350;28;48260;-73
2021/10/30 00:17:23;;;;;;;;;17.00;15.75;;;;;15.68;70.91;99884.63;5056726;28;45317;-73
2021/10/30 00:19:48;;;;;;;;;17.50;16.00;;;;;15.66;70.92;99871.28;5053935;28;45297;-73
2021/10/30 00:22:14;;;;;;;;;17.50;16.25;;;;;15.68;71.11;99863.94;5052459;28;45223;-73
2021/10/30 00:24:39;;;;;;;;;15.00;13.75;;;;;15.66;70.89;99854.28;5058514;28;45424;-73
2021/10/30 00:27:08;;;;;;;;;17.00;14.25;;;;;15.69;70.93;99863.00;5058923;28;45488;-73
2021/10/30 00:29:34;;;;;;;;;7.75;7.25;;;;;15.69;70.97;99856.78;5062066;28;45410;-73
2021/10/30 00:31:59;;;;;;;;;17.50;16.25;;;;;15.70;70.95;99856.66;5061726;28;45366;-73
2021/10/30 00:34:24;;;;;;;;;14.75;14.00;;;;;15.67;71.05;99847.91;5058890;28;45362;-73
2021/10/30 00:36:50;;;;;;;;;15.75;14.25;;;;;15.69;71.13;99863.00;5055640;28;45387;-73
2021/10/30 00:39:17;;;;;;;;;14.25;13.00;;;;;15.69;70.99;99848.69;5058607;28;45301;-73
2021/10/30 00:41:50;;;;;;;;;15.50;14.00;;;;;15.69;70.98;99851.38;5055024;28;45255;-73
2021/10/30 00:44:16;;;;;;;;;16.00;16.00;;;;;15.62;71.07;99845.56;5069334;28;47076;-72
2021/10/30 00:46:43;;;;;;;;;17.50;16.75;;;;;15.65;71.04;99842.66;5058266;28;45785;-73
2021/10/30 00:49:10;;;;;;;;;14.75;13.25;;;;;15.62;71.03;99839.28;5060650;28;45184;-73
2021/10/30 00:51:37;;;;;;;;;14.00;12.25;;;;;15.66;71.17;99839.00;5058457;28;45641;-73
2021/10/30 00:54:04;;;;;;;;;18.25;15.75;;;;;15.69;71.16;99840.63;5061812;28;46370;-73
2021/10/30 00:56:31;;;;;;;;;13.75;12.25;;;;;15.66;71.18;99833.63;5060903;28;45514;-73
2021/10/30 00:58:58;;;;;;;;;15.00;14.25;;;;;15.65;71.25;99837.28;5061749;28;45221;-72
2021/10/30 01:01:23;;;;;;;;;14.00;14.00;;;;;15.65;71.24;99834.59;5061010;28;45514;-73
2021/10/30 01:03:51;;;;;;;;;13.00;12.50;;;;;15.64;71.23;99829.31;5061205;28;45218;-73
2021/10/30 01:06:16;;;;;;;;;12.00;12.00;;;;;15.63;71.82;99822.19;5056142;28;45243;-73
2021/10/30 01:08:42;;;;;;;;;13.25;13.00;;;;;15.63;71.37;99811.44;5061842;28;45276;-73
2021/10/30 01:11:07;;;;;;;;;14.50;14.00;;;;;15.64;71.67;99819.41;5061188;28;45593;-73
2021/10/30 01:13:34;;;;;;;;;13.00;12.00;;;;;15.58;71.55;99806.38;5059557;28;45931;-72
2021/10/30 01:15:59;;;;;;;;;12.75;10.25;;;;;15.57;71.53;99810.91;5056308;28;45493;-73
2021/10/30 01:18:25;;;;;;;;;12.00;11.75;;;;;15.61;71.48;99805.31;5059778;28;45258;-73
2021/10/30 01:20:52;;;;;;;;;13.75;12.25;;;;;15.60;71.47;99804.44;5057859;28;45263;-73
2021/10/30 01:23:17;;;;;;;;;12.50;11.50;;;;;15.62;71.63;99805.22;5059515;28;45972;-73
2021/10/30 01:25:45;;;;;;;;;12.25;12.00;;;;;15.60;71.51;99795.50;5062767;28;45299;-72
2021/10/30 01:28:11;;;;;;;;;11.75;10.00;;;;;15.61;71.71;99797.25;5059124;28;45453;-72
2021/10/30 01:30:37;;;;;;;;;9.50;9.50;;;;;15.64;71.53;99792.50;5058801;28;45381;-73
2021/10/30 01:33:04;;;;;;;;;9.75;9.75;;;;;15.63;71.70;99785.41;5061080;28;45951;-73
2021/10/30 01:35:34;;;;;;;;;10.50;8.00;;;;;15.62;71.66;99790.88;5057449;28;45301;-73
2021/10/30 01:38:01;;;;;;;;;9.75;9.75;;;;;15.59;71.71;99774.97;5059652;28;45292;-73
2021/10/30 01:40:27;;;;;;;;;12.25;12.00;;;;;15.57;71.97;99784.00;5057791;28;45338;-73
2021/10/30 01:43:02;;;;;;;;;9.25;8.25;;;;;15.57;72.08;99788.53;5059463;28;48216;-73
2021/10/30 01:45:29;;;;;;;;;11.75;11.50;;;;;15.55;71.89;99772.50;5061112;28;45478;-73
2021/10/30 01:47:55;;;;;;;;;12.00;11.00;;;;;15.55;72.30;99772.50;5049463;28;45390;-73
2021/10/30 01:50:22;;;;;;;;;10.75;10.75;;;;;15.51;72.08;99770.97;5058137;28;45453;-73
2021/10/30 01:52:49;;;;;;;;;10.50;9.75;;;;;15.48;72.33;99763.09;5058302;28;47970;-73
2021/10/30 01:55:16;;;;;;;;;11.25;10.00;;;;;15.51;72.36;99753.97;5060568;28;45177;-73
2021/10/30 01:57:42;;;;;;;;;9.50;9.50;;;;;15.50;72.37;99758.50;5060752;28;45314;-73
2021/10/30 02:00:10;;;;;;;;;9.75;9.75;;;;;15.51;72.63;99753.97;5060043;28;45381;-73
2021/10/30 02:02:35;;;;;;;;;10.00;10.00;;;;;15.50;72.48;99742.38;5060723;28;46179;-73
2021/10/30 02:05:01;;;;;;;;;10.75;10.25;;;;;15.51;72.78;99744.06;5047563;28;45563;-73
2021/10/30 02:07:26;;;;;;;;;12.00;12.00;;;;;15.51;72.45;99736.00;5060852;28;45225;-73
2021/10/30 02:09:52;;;;;;;;;11.75;11.00;;;;;15.48;72.30;99722.75;5056670;28;45233;-73
2021/10/30 02:12:18;;;;;;;;;12.50;11.25;;;;;15.50;72.76;99718.16;5060309;28;45235;-73
2021/10/30 02:14:43;;;;;;;;;8.75;8.75;;;;;15.51;72.77;99714.47;5055963;28;45429;-73
2021/10/30 02:17:08;;;;;;;;;10.00;8.00;;;;;15.51;72.56;99698.34;5058088;28;45404;-73
2021/10/30 02:19:34;;;;;;;;;10.00;9.00;;;;;15.53;72.64;99701.78;5056039;28;45343;-73
2021/10/30 02:21:59;;;;;;;;;12.75;11.75;;;;;15.55;72.59;99691.81;5058269;28;46520;-73
2021/10/30 02:24:24;;;;;;;;;13.25;12.25;;;;;15.55;72.47;99691.81;5056004;28;45176;-73
2021/10/30 02:26:50;;;;;;;;;9.75;8.75;;;;;15.55;72.45;99681.03;5058134;28;45469;-73
2021/10/30 02:29:16;;;;;;;;;12.00;11.50;;;;;15.59;72.61;99692.44;5046200;28;45343;-73
2021/10/30 02:31:41;;;;;;;;;11.00;11.00;;;;;15.56;72.38;99685.44;5057856;28;46193;-73
2021/10/30 02:34:07;;;;;;;;;11.75;11.00;;;;;15.59;72.64;99686.22;5053462;28;45369;-73
2021/10/30 02:36:32;;;;;;;;;13.50;12.50;;;;;15.55;72.39;99683.72;5051009;28;45474;-73
2021/10/30 02:38:58;;;;;;;;;11.00;11.00;;;;;15.55;72.68;99672.97;5056091;28;45383;-73
2021/10/30 02:41:23;;;;;;;;;11.50;11.00;;;;;15.60;72.61;99666.41;5057900;28;48151;-73
2021/10/30 02:43:49;;;;;;;;;11.25;11.25;;;;;15.61;72.59;99665.44;5055142;28;45392;-73
2021/10/30 02:46:14;;;;;;;;;10.50;10.50;;;;;15.63;72.64;99658.97;5044708;28;45315;-73
2021/10/30 02:48:39;;;;;;;;;13.75;12.25;;;;;15.64;72.50;99652.63;5058303;28;45902;-73
2021/10/30 02:51:05;;;;;;;;;13.50;12.50;;;;;15.61;72.47;99647.47;5060085;28;46205;-73
2021/10/30 02:53:30;;;;;;;;;11.75;11.25;;;;;15.66;72.43;99655.22;5059915;28;45200;-73
2021/10/30 02:55:55;;;;;;;;;13.75;13.75;;;;;15.56;72.57;99628.94;5060198;28;45501;-73
2021/10/30 02:58:21;;;;;;;;;12.00;12.00;;;;;15.62;72.31;99645.63;5058334;28;45267;-73
2021/10/30 03:00:46;;;;;;;;;10.75;10.75;;;;;15.61;72.49;99642.06;5059659;28;45220;-73
2021/10/30 03:03:11;;;;;;;;;10.75;10.75;;;;;15.62;72.35;99621.41;5059607;28;45415;-73
2021/10/30 03:05:37;;;;;;;;;10.25;10.00;;;;;15.66;72.37;99628.31;5055295;28;45359;-73
2021/10/30 03:08:02;;;;;;;;;11.25;11.25;;;;;15.61;72.56;99620.56;5055519;28;45228;-73
2021/10/30 03:10:28;;;;;;;;;12.75;11.50;;;;;15.63;72.22;99617.75;5059292;28;46019;-73
2021/10/30 03:12:53;;;;;;;;;11.25;11.00;;;;;15.69;72.47;99610.13;5059479;28;45322;-73
2021/10/30 03:15:19;;;;;;;;;11.75;10.25;;;;;15.68;72.40;99596.78;5059868;28;45341;-73
2021/10/30 03:17:46;;;;;;;;;11.50;10.50;;;;;15.69;72.35;99595.81;5058204;28;45472;-73
2021/10/30 03:20:12;;;;;;;;;12.25;12.25;;;;;15.65;71.95;99576.34;5050270;28;46308;-73
2021/10/30 03:22:38;;;;;;;;;14.00;12.00;;;;;15.67;72.09;99577.09;5055647;28;45545;-73
2021/10/30 03:25:04;;;;;;;;;12.50;10.00;;;;;15.68;71.97;99570.72;5059730;28;45455;-73
2021/10/30 03:27:29;;;;;;;;;15.00;12.50;;;;;15.66;71.99;99561.06;5059367;28;45355;-73
2021/10/30 03:29:54;;;;;;;;;12.25;12.25;;;;;15.62;72.11;99560.44;5063062;28;45283;-73
2021/10/30 03:32:20;;;;;;;;;8.00;8.00;;;;;15.61;71.88;99556.00;5062847;28;45240;-73
2021/10/30 03:34:45;;;;;;;;;10.75;10.00;;;;;15.64;71.92;99557.63;5063433;28;45416;-73
2021/10/30 03:37:11;;;;;;;;;11.00;10.25;;;;;15.63;71.90;99554.06;5062845;28;45397;-73
2021/10/30 03:39:36;;;;;;;;;11.00;10.50;;;;;15.61;71.91;99545.25;5062876;28;45684;-72
2021/10/30 03:42:03;;;;;;;;;11.25;10.50;;;;;15.55;71.89;99533.13;5062520;28;45238;-73
2021/10/30 03:44:29;;;;;;;;;10.25;10.25;;;;;15.60;71.90;99548.88;5061720;28;45357;-73
2021/10/30 03:46:54;;;;;;;;;11.75;10.75;;;;;15.57;71.86;99535.69;5062421;28;45461;-73
2021/10/30 03:49:20;;;;;;;;;12.00;11.00;;;;;15.50;71.86;99527.22;5061416;28;47003;-73
2021/10/30 03:51:45;;;;;;;;;11.00;11.00;;;;;15.56;71.95;99532.13;5062529;28;45353;-72
2021/10/30 03:54:11;;;;;;;;;10.75;9.00;;;;;15.53;72.14;99535.03;5063006;28;45228;-73
2021/10/30 03:56:36;;;;;;;;;9.25;9.25;;;;;15.52;71.93;99533.34;5060974;28;45243;-73
2021/10/30 03:59:02;;;;;;;;;10.00;10.00;;;;;15.54;72.07;99534.06;5061245;28;47200;-73
2021/10/30 04:01:28;;;;;;;;;12.50;11.00;;;;;15.57;71.99;99541.91;5062224;28;45365;-72
2021/10/30 04:03:53;;;;;;;;;13.00;11.75;;;;;15.52;71.86;99527.09;5054550;28;45280;-73
2021/10/30 04:06:18;;;;;;;;;12.50;11.50;;;;;15.52;71.83;99540.53;5057341;28;45374;-73
2021/10/30 04:08:44;;;;;;;;;10.25;10.25;;;;;15.51;71.86;99550.44;5062531;28;45491;-73
2021/10/30 04:11:10;;;;;;;;;11.00;11.00;;;;;15.50;71.88;99531.72;5061902;28;45310;-72
2021/10/30 04:13:35;;;;;;;;;11.50;10.25;;;;;15.50;71.89;99535.28;5062355;28;45153;-72
2021/10/30 04:16:01;;;;;;;;;12.25;12.25;;;;;15.45;72.03;99524.00;5062292;28;45298;-73
2021/10/30 04:18:26;;;;;;;;;10.50;10.50;;;;;15.44;72.00;99524.09;5062164;28;45333;-73
2021/10/30 04:20:51;;;;;;;;;8.00;8.00;;;;;15.45;72.01;99523.13;5060739;28;45426;-73
2021/10/30 04:23:17;;;;;;;;;9.00;9.00;;;;;15.42;72.08;99526.00;5062621;28;45377;-73
2021/10/30 04:25:42;;;;;;;;;8.75;8.75;;;;;15.42;71.98;99528.72;5061977;28;45558;-73
2021/10/30 04:28:08;;;;;;;;;10.25;9.75;;;;;15.41;71.86;99538.63;5061990;28;45988;-73
2021/10/30 04:30:34;;;;;;;;;8.75;8.75;;;;;15.47;71.99;99543.56;5061890;28;45344;-73
2021/10/30 04:33:00;;;;;;;;;10.25;10.25;;;;;15.47;72.10;99534.63;5062274;28;45320;-73
2021/10/30 04:35:25;;;;;;;;;7.00;7.00;;;;;15.43;71.90;99541.19;5062025;28;45374;-73
2021/10/30 04:37:50;;;;;;;;;12.00;10.00;;;;;15.44;72.13;99540.25;5061957;28;45378;-73
2021/10/30 04:40:16;;;;;;;;;9.25;8.75;;;;;15.44;72.33;99548.31;5060636;28;45284;-73
2021/10/30 04:42:41;;;;;;;;;8.00;8.00;;;;;15.43;72.40;99536.66;5062193;28;45696;-73
2021/10/30 04:45:07;;;;;;;;;8.75;8.00;;;;;15.45;72.46;99544.63;5061899;28;45314;-73
2021/10/30 04:47:32;;;;;;;;;7.50;7.50;;;;;15.44;72.22;99543.78;5061489;28;45960;-73
2021/10/30 04:49:58;;;;;;;;;9.00;9.00;;;;;15.41;72.38;99543.16;5061705;28;45302;-73
2021/10/30 04:52:23;;;;;;;;;8.25;7.00;;;;;15.42;72.49;99539.47;5062213;28;45448;-73
2021/10/30 04:54:48;;;;;;;;;8.00;8.00;;;;;15.40;72.61;99520.75;5061665;28;45292;-73
2021/10/30 04:57:14;;;;;;;;;6.00;5.25;;;;;15.36;72.78;99514.75;5061424;28;46360;-73
2021/10/30 04:59:39;;;;;;;;;7.25;7.00;;;;;15.41;72.74;99533.22;5061584;28;45324;-73
2021/10/30 05:02:05;;;;;;;;;7.75;7.75;;;;;15.38;72.69;99528.06;5060417;28;45331;-73
2021/10/30 05:04:30;;;;;;;;;8.25;8.25;;;;;15.36;72.69;99511.19;5056767;28;45543;-72
2021/10/30 05:06:56;;;;;;;;;6.00;6.00;;;;;15.29;73.01;99505.41;5061801;28;45379;-72
2021/10/30 05:09:23;;;;;;;;;8.50;8.50;;;;;15.34;72.91;99513.16;5060571;28;45594;-73
2021/10/30 05:11:48;;;;;;;;;8.75;7.50;;;;;15.34;72.94;99505.94;5060866;28;45313;-72
2021/10/30 05:14:13;;;;;;;;;8.50;7.25;;;;;15.33;73.00;99512.25;5061181;28;45342;-73
2021/10/30 05:16:39;;;;;;;;;7.50;7.50;;;;;15.34;73.18;99503.25;5060714;28;45327;-73
2021/10/30 05:19:04;;;;;;;;;8.75;8.50;;;;;15.38;73.06;99504.75;5061268;28;45324;-73
2021/10/30 05:21:30;;;;;;;;;7.75;7.75;;;;;15.38;73.04;99495.81;5061524;28;45586;-72
2021/10/30 05:23:56;;;;;;;;;7.00;6.00;;;;;15.42;73.03;99502.69;5061210;28;45464;-72
2021/10/30 05:26:23;;;;;;;;;7.25;6.50;;;;;15.42;73.00;99500.00;5060706;28;45326;-73
2021/10/30 05:28:48;;;;;;;;;3.50;3.50;;;;;15.43;73.11;99490.09;5061266;28;45375;-73
2021/10/30 05:31:13;;;;;;;;;6.75;6.75;;;;;15.44;73.00;99494.53;5061180;28;45260;-73
2021/10/30 05:33:39;;;;;;;;;7.00;7.00;;;;;15.46;72.79;99501.50;5076555;28;45545;-73
2021/10/30 05:36:06;;;;;;;;;8.00;8.00;;;;;15.45;72.97;99497.09;5059614;28;47856;-73
2021/10/30 05:38:31;;;;;;;;;5.00;5.00;;;;;15.49;73.13;99500.44;5059771;28;45972;-72
2021/10/30 05:40:57;;;;;;;;;8.00;7.25;;;;;15.44;73.03;99490.00;5059937;28;46416;-73
2021/10/30 05:43:22;;;;;;;;;6.25;6.25;;;;;15.46;72.93;99498.81;5060820;28;45335;-73
2021/10/30 05:45:48;;;;;;;;;7.75;6.00;;;;;15.42;73.23;99483.88;5060686;28;45259;-73
2021/10/30 05:48:15;;;;;;;;;7.00;6.00;;;;;15.45;73.13;99502.47;5059236;28;45267;-73
2021/10/30 05:50:41;;;;;;;;;7.75;7.25;;;;;15.49;73.33;99501.28;5060498;28;45330;-72
2021/10/30 05:53:07;;;;;;;;;6.50;6.25;;;;;15.51;73.15;99498.47;5060817;28;45432;-72
2021/10/30 05:55:33;;;;;;;;;7.75;7.75;;;;;15.53;73.06;99497.38;5060669;28;45977;-72
2021/10/30 05:57:58;;;;;;;;;5.75;5.75;;;;;15.51;73.15;99485.03;5060427;28;45251;-72
2021/10/30 06:00:24;;;;;;;;;8.25;7.50;;;;;15.53;73.11;99485.78;5060695;28;45408;-72
2021/10/30 06:02:49;;;;;;;;;6.75;6.50;;;;;15.57;73.07;99490.81;5060598;28;45307;-73
2021/10/30 06:05:15;;;;;;;;;9.25;8.00;;;;;15.56;73.24;99488.25;5059304;28;47243;-72
2021/10/30 06:07:40;;;;;;;;;6.25;6.25;;;;;15.54;73.21;99476.75;5060700;28;45172;-72
2021/10/30 06:10:07;;;;;;;;;12.75;8.25;;;;;15.62;73.25;99490.50;5060195;28;45243;-72
2021/10/30 06:12:37;;;;;;;;;7.00;6.25;;;;;15.63;73.12;99494.03;5060460;28;45207;-72
2021/10/30 06:15:03;;;;;;;;;5.75;5.75;;;;;15.64;73.15;99485.00;5047304;28;45499;-72
2021/10/30 06:17:28;;;;;;;;;6.25;6.25;;;;;15.65;73.13;99486.69;5060354;28;45377;-72
2021/10/30 06:19:53;;;;;;;;;6.75;6.75;;;;;15.67;73.07;99484.75;5060769;28;45395;-73
2021/10/30 06:22:19;;;;;;;;;6.50;6.00;;;;;15.71;73.16;99499.72;5060289;28;45389;-73
2021/10/30 06:24:44;;;;;;;;;4.00;4.00;;;;;15.70;73.24;99484.53;5059252;28;47127;-72
2021/10/30 06:27:10;;;;;;;;;5.75;5.50;;;;;15.65;73.25;99482.19;5059946;28;45372;-72
2021/10/30 06:29:36;;;;;;;;;7.00;6.50;;;;;15.65;73.22;99484.88;5060582;28;45372;-72
2021/10/30 06:32:03;;;;;;;;;6.00;6.00;;;;;15.72;73.23;99496.06;5060130;28;45235;-72
2021/10/30 06:34:28;;;;;;;;;8.25;8.25;;;;;15.72;73.18;99488.00;5060432;28;47627;-73
2021/10/30 06:36:53;;;;;;;;;7.00;7.00;;;;;15.71;73.35;99489.78;5060253;28;45133;-71
2021/10/30 06:39:18;;;;;;;;;5.50;5.50;;;;;15.67;73.13;99487.44;5060398;28;45310;-73
2021/10/30 06:41:45;;;;;;;;;7.00;5.50;;;;;15.71;73.30;99491.63;5059945;28;45396;-72
2021/10/30 06:44:11;;;;;;;;;5.00;5.00;;;;;15.69;73.24;99488.22;5071800;28;47916;-73
2021/10/30 06:46:36;;;;;;;;;6.50;5.00;;;;;15.70;73.37;99489.91;5059573;28;45398;-73
2021/10/30 06:49:01;;;;;;;;;6.25;6.25;;;;;15.67;73.35;99480.25;5060308;28;45317;-73
2021/10/30 06:51:27;;;;;;;;;6.75;5.25;;;;;15.68;73.16;99483.78;5058648;28;45444;-73
2021/10/30 06:53:52;;;;;;;;;5.75;5.75;;;;;15.66;73.45;99480.34;5060040;28;45353;-72
2021/10/30 06:56:19;;;;;;;;;6.00;6.00;;;;;15.69;73.60;99488.22;5059638;28;45330;-72
2021/10/30 06:58:45;;;;;;;;;6.00;5.50;;;;;15.68;73.33;99492.72;5056234;28;45531;-74
2021/10/30 07:01:15;;;;;;;;;5.50;5.50;;;;;15.68;73.32;99489.16;5050668;28;45497;-74
2021/10/30 07:03:43;;;;;;;;;4.00;3.50;;;;;15.67;73.25;99476.69;5057471;28;45547;-74
2021/10/30 07:06:11;;;;;;;;;5.50;5.00;;;;;15.66;73.41;99474.97;5059112;28;45315;-74
2021/10/30 07:08:37;;;;;;;;;6.25;5.50;;;;;15.68;73.51;99475.72;5071725;28;45279;-74
2021/10/30 07:11:02;;;;;;;;;5.50;5.50;;;;;15.63;73.47;99467.13;5059610;28;45225;-74
2021/10/30 07:13:28;;;;;;;;;6.00;5.00;;;;;15.63;73.48;99461.75;5059414;28;45338;-74
2021/10/30 07:15:53;;;;;;;;;6.00;6.00;;;;;15.68;73.38;99475.72;5059061;28;45215;-72
2021/10/30 07:18:19;;;;;;;;;4.75;4.75;;;;;15.70;73.24;99476.47;5056822;28;45316;-74
2021/10/30 07:20:44;;;;;;;;;4.25;4.25;;;;;15.70;73.40;99482.72;5059027;28;45149;-74
2021/10/30 07:23:09;;;;;;;;;5.50;5.50;;;;;15.66;73.47;99475.81;5059660;28;45211;-73
2021/10/30 07:25:35;;;;;;;;;6.00;5.00;;;;;15.66;73.30;99467.75;5058282;28;45223;-74
2021/10/30 07:28:00;;;;;;;;;4.50;4.00;;;;;15.67;73.36;99472.19;5059474;28;45731;-74
2021/10/30 07:30:25;;;;;;;;;4.50;4.50;;;;;15.66;73.42;99475.81;5057993;28;45746;-74
2021/10/30 07:32:52;;;;;;;;;3.00;3.00;;;;;15.69;73.24;99475.59;5059442;28;45913;-73
2021/10/30 07:35:19;;;;;;;;;4.00;4.00;;;;;15.74;73.30;99473.44;5059494;28;45637;-73
2021/10/30 07:37:44;;;;;;;;;4.00;4.00;;;;;15.74;73.25;99469.91;5059669;28;45310;-73
2021/10/30 07:40:10;;;;;;;;;5.25;5.25;;;;;15.73;73.41;99468.16;5059351;28;45327;-73
2021/10/30 07:42:36;;;;;;;;;6.50;5.50;;;;;15.75;73.20;99476.97;5059017;28;47035;-74
2021/10/30 07:45:03;;;;;;;;;6.50;5.00;;;;;15.76;73.36;99483.25;5059380;28;45233;-73
2021/10/30 07:47:28;;;;;;;;;6.00;5.00;;;;;15.73;73.24;99489.69;5057816;28;45772;-73
2021/10/30 07:49:54;;;;;;;;;5.00;4.00;;;;;15.76;73.43;99483.25;5059328;28;45582;-73
2021/10/30 07:52:21;;;;;;;;;7.00;6.00;;;;;15.73;73.44;99489.69;5055902;28;46155;-73
2021/10/30 07:54:47;;;;;;;;;2.00;2.00;;;;;15.80;73.46;99506.25;5053655;28;45460;-73
2021/10/30 07:57:13;;;;;;;;;4.25;4.25;;;;;15.74;73.16;99494.94;5059095;28;45369;-73
2021/10/30 07:59:38;;;;;;;;;4.75;4.75;;;;;15.78;73.36;99497.47;5059149;28;45303;-74
2021/10/30 08:02:05;;;;;;;;;5.00;5.00;;;;;15.77;73.55;99499.31;5058825;28;45385;-73
2021/10/30 08:04:33;;;;;;;;;4.50;4.50;;;;;15.81;73.43;99514.22;5059049;28;45314;-73
2021/10/30 08:06:58;;;;;;;;;4.00;4.00;;;;;15.80;73.53;99507.13;5059122;28;45350;-74
2021/10/30 08:09:24;;;;;;;;;5.75;5.00;;;;;15.80;73.17;99515.19;5057866;28;45900;-74
2021/10/30 08:11:49;;;;;;;;;5.00;5.00;;;;;15.83;73.47;99525.72;5058602;28;46302;-73
2021/10/30 08:14:14;;;;;;;;;4.25;4.25;;;;;15.81;73.45;99525.00;5060408;28;45231;-73
2021/10/30 08:16:40;;;;;;;;;7.00;5.00;;;;;15.81;73.42;99529.53;5060821;28;45311;-72
2021/10/30 08:19:05;;;;;;;;;4.00;4.00;;;;;15.81;73.08;99524.13;5062540;28;45359;-72
2021/10/30 08:21:31;;;;;;;;;5.00;5.00;;;;;15.84;73.50;99524.78;5062144;28;45340;-73
2021/10/30 08:23:57;;;;;;;;;5.50;5.00;;;;;15.79;73.65;99520.72;5062448;28;45338;-73
2021/10/30 08:26:23;;;;;;;;;5.25;5.25;;;;;15.83;73.56;99528.41;5060801;28;45468;-73
2021/10/30 08:28:49;;;;;;;;;6.00;4.75;;;;;15.82;73.65;99529.41;5062367;28;45354;-73
2021/10/30 08:31:15;;;;;;;;;5.50;5.50;;;;;15.86;73.43;99528.19;5053993;28;48036;-74
2021/10/30 08:33:40;;;;;;;;;5.75;5.50;;;;;15.88;73.51;99530.78;5055316;28;45319;-73
2021/10/30 08:36:05;;;;;;;;;5.25;5.25;;;;;15.86;73.46;99522.81;5048788;28;45315;-73
2021/10/30 08:38:34;;;;;;;;;6.00;6.00;;;;;15.90;73.44;99531.53;5061033;28;45574;-73
2021/10/30 08:41:01;;;;;;;;;7.50;5.75;;;;;15.87;73.62;99521.84;5044305;28;47530;-73
2021/10/30 08:43:27;;;;;;;;;6.00;6.00;;;;;15.92;73.57;99533.13;5056052;28;45332;-73
2021/10/30 08:45:55;;;;;;;;;6.25;3.25;;;;;15.96;73.57;99532.91;5062189;28;45259;-73
2021/10/30 08:48:21;;;;;;;;;5.50;5.00;;;;;15.93;73.53;99524.06;5061636;28;45418;-74
2021/10/30 08:50:49;;;;;;;;;5.25;5.00;;;;;16.00;73.52;99531.69;5062175;28;45312;-74
2021/10/30 08:53:14;;;;;;;;;6.00;6.00;;;;;16.02;73.46;99544.09;5061822;28;45623;-73
2021/10/30 08:55:40;;;;;;;;;6.50;5.50;;;;;16.03;73.57;99528.78;5061954;28;45252;-74
2021/10/30 08:58:11;;;;;;;;;5.00;5.00;;;;;16.01;73.64;99542.34;5060106;28;45615;-69
2021/10/30 09:00:49;;;;;;;;;4.75;4.75;;;;;16.01;73.78;99536.97;5061595;28;45352;-70
2021/10/30 09:03:17;;;;;;;;;4.50;3.75;;;;;16.03;73.47;99536.88;5061404;28;45392;-74
2021/10/30 09:05:45;;;;;;;;;5.00;5.00;;;;;16.05;73.58;99538.44;5061904;28;45426;-71
2021/10/30 09:08:13;;;;;;;;;6.00;5.00;;;;;16.04;73.79;99531.38;5060214;28;45279;-70
2021/10/30 09:10:47;;;;;;;;;3.00;3.00;;;;;16.02;73.76;99537.81;5061572;28;45310;-69
2021/10/30 09:13:14;;;;;;;;;3.75;3.75;;;;;16.00;73.92;99537.94;5041367;28;45496;-68
2021/10/30 09:15:46;;;;;;;;;4.00;4.00;;;;;15.99;74.02;99528.16;5050419;28;45370;-71
2021/10/30 09:18:35;;;;;;;;;5.00;5.00;;;;;16.00;74.00;99529.00;5061300;28;45299;-69
2021/10/30 09:21:03;;;;;;;;;5.00;5.00;;;;;16.01;74.30;99528.06;5059926;28;47201;-72
2021/10/30 09:23:34;;;;;;;;;5.25;5.25;;;;;15.99;74.37;99528.16;5061481;28;45623;-70
2021/10/30 09:26:16;;;;;;;;;5.00;5.00;;;;;15.95;74.19;99529.34;5060462;28;45437;-77
2021/10/30 09:28:53;;;;;;;;;6.00;4.25;;;;;15.97;74.22;99527.44;5047767;28;45327;-76
2021/10/30 09:31:20;;;;;;;;;5.00;5.00;;;;;16.01;74.37;99531.59;5052376;28;47245;-76
2021/10/30 09:34:00;;;;;;;;;5.50;5.50;;;;;16.03;74.14;99539.56;5055363;28;45520;-74
2021/10/30 09:36:33;;;;;;;;;3.25;3.25;;;;;16.07;74.26;99547.28;5061421;28;45193;-73
2021/10/30 09:39:01;;;;;;;;;6.00;5.00;;;;;16.06;74.26;99542.03;5059782;28;45271;-72
2021/10/30 09:41:35;;;;;;;;;5.50;5.50;;;;;16.04;74.34;99539.44;5060905;28;46890;-71
2021/10/30 09:44:12;;;;;;;;;6.00;6.00;;;;;16.02;74.38;99533.31;5059841;28;45323;-72
2021/10/30 09:46:57;;;;;;;;;6.75;5.00;;;;;16.01;74.38;99530.75;5060742;28;45303;-72
2021/10/30 09:49:28;;;;;;;;;5.50;5.50;;;;;16.02;74.52;99530.63;5061248;28;45325;-72
2021/10/30 09:51:54;;;;;;;;;6.00;5.25;;;;;16.02;74.52;99532.44;5060783;28;45715;-71
2021/10/30 09:54:37;;;;;;;;;6.00;6.00;;;;;15.98;74.47;99534.50;5061146;28;45318;-72
2021/10/30 09:57:08;;;;;;;;;6.25;5.75;;;;;16.00;74.61;99531.69;5059257;28;45455;-72
2021/10/30 09:59:37;;;;;;;;;6.00;5.75;;;;;16.03;74.60;99539.56;5060724;28;45434;-71
2021/10/30 10:02:05;;;;;;;;;5.00;5.00;;;;;16.00;74.64;99540.63;5060512;28;45938;-75
2021/10/30 10:04:31;;;;;;;;;5.00;5.00;;;;;16.03;74.43;99544.94;5060579;28;45454;-73
2021/10/30 10:06:59;;;;;;;;;5.00;5.00;;;;;16.03;74.53;99534.16;5060967;28;45395;-74
2021/10/30 10:09:24;;;;;;;;;0.00;0.00;;;;;16.01;74.47;99534.28;5060480;28;45191;-73
2021/10/30 10:11:51;;;;;;;;;5.25;5.00;;;;;16.02;74.43;99537.81;5060611;28;45208;-74
2021/10/30 10:14:19;;;;;;;;;4.25;4.25;;;;;16.02;75.00;99545.91;5060537;28;45405;-65
2021/10/30 10:16:49;;;;;;;;;5.25;5.00;;;;;16.00;74.27;99550.53;5059275;28;45376;-65
2021/10/30 10:19:15;;;;;;;;;5.50;5.50;;;;;15.99;74.49;99549.69;5060449;28;45570;-70
2021/10/30 10:21:42;;;;;;;;;5.00;5.00;;;;;16.04;74.22;99557.44;5060524;28;45326;-66
2021/10/30 10:24:17;;;;;;;;;6.50;5.50;;;;;16.06;74.54;99555.47;5060442;28;45527;-74
2021/10/30 10:26:49;;;;;;;;;5.00;5.00;;;;;16.10;74.30;99567.72;5060216;28;45402;-81
2021/10/30 10:29:28;;;;;;;;;6.00;6.00;;;;;16.04;74.58;99560.97;5060289;28;45306;-73
2021/10/30 10:31:53;;;;;;;;;6.50;6.25;;;;;16.09;74.70;99571.41;5047796;28;46232;-72
2021/10/30 10:34:23;;;;;;;;;9.25;8.75;;;;;16.11;74.49;99564.06;5058958;28;45484;-73
2021/10/30 10:37:12;;;;;;;;;10.00;7.75;;;;;16.14;74.31;99574.63;5060501;28;45486;-73
2021/10/30 10:39:44;;;;;;;;;6.75;6.00;;;;;16.15;74.55;99565.53;5049266;28;45951;-73
2021/10/30 10:42:14;;;;;;;;;6.00;6.00;;;;;16.08;74.64;99557.06;5059912;28;45651;-73
2021/10/30 10:44:43;;;;;;;;;4.00;4.00;;;;;16.13;74.67;99570.19;5060189;28;45343;-73
2021/10/30 10:47:11;;;;;;;;;4.50;4.50;;;;;16.15;74.71;99567.38;5059875;28;45173;-73
2021/10/30 10:54:58;;;;;;;;;4.00;4.00;;;;;16.20;74.86;99571.44;5059959;28;45565;-73
2021/10/30 10:57:48;;;;;;;;;5.00;5.00;;;;;16.22;74.77;99571.34;5060021;28;45338;-73
2021/10/30 11:00:22;;;;;;;;;5.25;5.25;;;;;16.21;74.68;99567.78;5059511;27;45632;-73
2021/10/30 11:02:50;;;;;;;;;4.75;4.00;;;;;16.24;74.58;99569.41;5058483;28;47270;-74
2021/10/30 11:05:20;;;;;;;;;4.50;4.50;;;;;16.24;74.77;99566.72;5059979;28;45460;-73
2021/10/30 11:07:48;;;;;;;;;5.00;5.00;;;;;16.23;74.80;99565.84;5060058;28;45311;-73
2021/10/30 11:10:26;;;;;;;;;7.00;6.00;;;;;16.21;74.93;99558.88;5060214;28;45441;-73
2021/10/30 11:13:13;;;;;;;;;7.75;5.00;;;;;16.21;74.85;99554.34;5059498;28;45287;-73
2021/10/30 11:15:41;;;;;;;;;5.50;5.00;;;;;16.27;75.03;99558.38;5059756;28;45535;-73
2021/10/30 11:18:13;;;;;;;;;5.00;5.00;;;;;16.25;75.01;99549.56;5059860;28;45252;-73
2021/10/30 11:20:45;;;;;;;;;6.50;6.25;;;;;16.29;75.40;99560.00;5059674;28;45330;-73
2021/10/30 11:23:20;;;;;;;;;6.75;6.75;;;;;16.28;75.15;99560.97;5059926;28;45345;-73
2021/10/30 11:25:51;;;;;;;;;8.75;7.00;;;;;16.30;75.45;99545.56;5059588;28;45695;-74
2021/10/30 11:28:17;;;;;;;;;5.75;5.75;;;;;16.32;75.14;99548.13;5059839;28;45413;-73
2021/10/30 11:30:43;;;;;;;;;5.00;5.00;;;;;16.37;75.13;99553.16;5057069;28;45468;-73